Time;durP1;ratioP1;P1;durP2;ratioP2;P2;SDS_P1;SDS_P2;PMS_P1;PMS_P2;Temp;Humidity;BMP_temperature;BMP_pressure;BME280_temperature;BME280_humidity;BME280_pressure;Samples;Min_cycle;Max_cycle;Signal;HPM_P1;HPM_P2
2022/01/11 00:03:40;;;;;;;2.50;1.27;;;;;;;8.57;89.69;98457.63;6187106;23;20166;-92
2022/01/11 00:09:23;;;;;;;2.67;0.80;;;;;;;7.95;92.07;98464.47;6186595;23;20183;-92
2022/01/11 00:11:49;;;;;;;4.17;1.07;;;;;;;8.01;92.79;98464.16;6186825;23;20153;-92
2022/01/11 00:14:15;;;;;;;3.93;1.83;;;;;;;8.16;90.36;98470.31;6185339;23;20161;-93
2022/01/11 00:16:41;;;;;;;1.77;0.87;;;;;;;8.07;90.82;98474.25;6185388;23;20159;-89
2022/01/11 00:19:07;;;;;;;3.30;0.90;;;;;;;7.96;90.32;98476.59;6160711;23;20165;-90
2022/01/11 00:21:50;;;;;;;1.63;0.57;;;;;;;7.87;90.55;98481.44;6185206;23;20166;-92
2022/01/11 00:26:57;;;;;;;3.77;1.10;;;;;;;7.89;91.30;98498.69;6186277;23;20140;-92
2022/01/11 00:29:23;;;;;;;3.30;1.17;;;;;;;7.84;91.53;98490.28;6185647;23;20598;-91
2022/01/11 00:31:59;;;;;;;1.43;0.83;;;;;;;8.05;90.70;98496.97;6185048;23;20183;-92
2022/01/11 00:34:26;;;;;;;3.93;1.47;;;;;;;7.94;90.57;98498.44;6186967;23;20171;-89
2022/01/11 00:36:55;;;;;;;0.77;0.50;;;;;;;7.70;91.67;98505.81;6184871;23;20150;-93
2022/01/11 00:39:25;;;;;;;6.83;1.10;;;;;;;7.81;91.47;98508.69;6185870;23;20159;-92
2022/01/11 00:41:51;;;;;;;2.77;1.00;;;;;;;7.82;91.48;98513.00;6160185;23;20149;-93
2022/01/11 00:44:16;;;;;;;2.30;0.90;;;;;;;7.79;91.69;98513.16;6186186;23;20178;-92
2022/01/11 00:46:44;;;;;;;3.03;1.13;;;;;;;8.04;89.43;98513.56;6186423;23;20213;-91
2022/01/11 00:49:14;;;;;;;2.60;0.90;;;;;;;7.94;89.82;98507.13;6186307;23;20160;-92
2022/01/11 00:51:42;;;;;;;4.07;1.83;;;;;;;7.68;90.04;98525.06;6160339;23;20166;-91
2022/01/11 00:54:07;;;;;;;2.17;1.10;;;;;;;7.84;91.03;98526.78;6160340;23;20151;-92
2022/01/11 00:59:44;;;;;;;0.97;0.70;;;;;;;7.95;87.98;98532.31;6178522;23;20317;-92
2022/01/11 01:02:23;;;;;;;3.27;1.40;;;;;;;7.95;88.63;98518.41;6185367;23;20269;-92
2022/01/11 01:04:51;;;;;;;5.10;1.50;;;;;;;7.59;89.86;98530.72;6182517;23;20169;-93
2022/01/11 01:07:39;;;;;;;3.63;1.10;;;;;;;7.36;90.87;98527.47;6184910;23;20182;-91
2022/01/11 01:10:36;;;;;;;2.60;0.87;;;;;;;7.27;91.21;98517.53;6186150;23;20155;-95
2022/01/11 01:13:20;;;;;;;;;;;;;;;;;;;;;
2022/01/11 01:16:03;;;;;;;2.53;1.03;;;;;;;7.73;89.12;98529.09;6186301;23;20217;-94
2022/01/11 01:18:52;;;;;;;3.80;1.27;;;;;;;7.80;88.63;98527.88;6184933;23;20172;-92
2022/01/11 01:21:18;;;;;;;3.07;0.83;;;;;;;7.79;87.96;98541.84;6185720;23;20486;-88
2022/01/11 01:23:45;;;;;;;3.40;1.53;;;;;;;7.52;88.38;98547.59;6185243;23;20189;-89
2022/01/11 01:26:11;;;;;;;3.87;1.17;;;;;;;7.59;88.10;98539.41;6185648;23;20201;-91
2022/01/11 01:28:37;;;;;;;2.10;1.23;;;;;;;7.78;86.79;98545.34;6185083;23;20186;-92
2022/01/11 01:31:04;;;;;;;3.80;1.80;;;;;;;7.72;88.39;98548.28;6184686;23;20272;-90
2022/01/11 01:33:32;;;;;;;2.20;1.47;;;;;;;7.39;88.23;98557.78;6184716;23;20147;-89
2022/01/11 01:38:44;;;;;;;1.20;1.07;;;;;;;7.09;90.57;98554.06;6140277;23;20174;-91
2022/01/11 01:41:21;;;;;;;6.80;1.83;;;;;;;7.18;89.83;98558.84;6185833;23;20597;-94
2022/01/11 01:44:03;;;;;;;3.37;1.43;;;;;;;7.42;88.53;98552.41;6185388;23;20162;-91
2022/01/11 01:46:30;;;;;;;2.93;1.43;;;;;;;7.69;87.41;98548.44;6184621;23;20157;-91
2022/01/11 01:49:22;;;;;;;3.97;1.53;;;;;;;7.62;87.47;98547.06;6186079;23;20282;-91
2022/01/11 01:51:47;;;;;;;3.07;1.73;;;;;;;7.73;87.01;98555.19;6184657;23;20193;-91
2022/01/11 01:57:38;;;;;;;4.20;1.70;;;;;;;6.93;89.92;98568.72;6172276;23;20266;-92
2022/01/11 02:00:16;;;;;;;2.97;1.40;;;;;;;7.06;89.71;98554.19;6184664;23;20151;-88
2022/01/11 02:02:44;;;;;;;3.83;1.43;;;;;;;7.30;88.44;98559.09;6185978;23;20135;-91
2022/01/11 02:05:18;;;;;;;4.47;1.80;;;;;;;7.26;87.72;98561.88;6160310;23;20518;-92
2022/01/11 02:07:44;;;;;;;6.63;1.63;;;;;;;7.46;87.35;98563.53;6185068;23;20201;-90
2022/01/11 02:10:10;;;;;;;3.63;1.53;;;;;;;6.88;89.07;98576.75;6159620;23;20152;-90
2022/01/11 02:12:38;;;;;;;1.97;0.97;;;;;;;7.04;88.72;98566.47;6159509;23;20158;-92
2022/01/11 02:15:10;;;;;;;5.67;1.87;;;;;;;6.97;89.25;98575.50;6159752;23;20197;-93
2022/01/11 02:17:51;;;;;;;4.47;1.50;;;;;;;6.99;88.95;98568.44;6184751;23;20147;-92
2022/01/11 02:20:26;;;;;;;5.33;2.00;;;;;;;7.05;87.86;98574.19;6184249;23;20180;-89
2022/01/11 02:22:51;;;;;;;4.47;1.70;;;;;;;6.81;89.16;98570.97;6184408;23;20201;-90
2022/01/11 02:25:17;;;;;;;4.10;1.13;;;;;;;6.67;89.65;98560.38;6185438;23;20150;-89
2022/01/11 02:27:42;;;;;;;4.03;1.63;;;;;;;7.03;87.76;98572.56;6185831;23;20170;-90
2022/01/11 02:30:08;;;;;;;6.03;1.70;;;;;;;7.27;87.89;98574.03;6185786;23;20190;-90
2022/01/11 02:32:52;;;;;;;5.40;2.00;;;;;;;7.30;86.34;98576.47;6185724;23;20169;-91
2022/01/11 02:35:18;;;;;;;1.30;0.97;;;;;;;7.17;86.51;98572.78;6185442;23;20215;-91
2022/01/11 02:37:44;;;;;;;1.47;0.47;;;;;;;7.00;86.28;98570.09;6185489;23;20234;-90
2022/01/11 02:40:19;;;;;;;1.53;1.00;;;;;;;7.02;87.00;98557.88;6186185;23;20562;-92
2022/01/11 02:42:45;;;;;;;2.70;1.17;;;;;;;7.14;85.89;98570.31;6159881;23;20143;-91
2022/01/11 02:45:21;;;;;;;2.27;1.13;;;;;;;6.90;86.67;98580.13;6185730;23;20151;-93
2022/01/11 02:47:49;;;;;;;1.53;0.90;;;;;;;6.96;86.86;98581.59;6160992;23;20170;-91
2022/01/11 02:50:17;;;;;;;2.73;1.30;;;;;;;7.00;86.79;98577.94;6185839;23;20146;-91
2022/01/11 02:52:42;;;;;;;1.87;1.40;;;;;;;7.26;85.79;98574.94;6185664;23;20185;-89
2022/01/11 02:55:15;;;;;;;4.13;1.50;;;;;;;7.36;85.21;98579.63;6184424;23;20567;-91
2022/01/11 02:57:40;;;;;;;2.40;1.20;;;;;;;7.28;85.48;98586.16;6184958;23;20178;-89
2022/01/11 03:00:12;;;;;;;2.70;1.60;;;;;;;7.41;84.68;98598.53;6186472;23;20157;-92
2022/01/11 03:02:38;;;;;;;4.70;2.43;;;;;;;7.59;84.19;98596.78;6187247;23;20147;-91
2022/01/11 03:05:37;;;;;;;5.17;1.87;;;;;;;7.44;83.54;98592.31;6186925;23;20559;-93
2022/01/11 03:08:03;;;;;;;3.47;1.30;;;;;;;7.41;84.79;98582.03;6182370;23;20267;-91
2022/01/11 03:10:34;;;;;;;2.90;2.00;;;;;;;7.36;83.72;98584.00;6188109;23;20547;-92
2022/01/11 03:13:16;;;;;;;4.37;1.30;;;;;;;7.28;84.03;98589.59;6187104;23;20177;-91
2022/01/11 03:15:43;;;;;;;2.47;1.47;;;;;;;6.82;86.77;98609.13;6186102;23;20230;-91
2022/01/11 03:18:09;;;;;;;4.03;1.60;;;;;;;7.05;86.32;98604.63;6186706;23;20169;-92
2022/01/11 03:20:37;;;;;;;4.43;2.63;;;;;;;7.10;86.45;98607.88;6187114;23;20228;-90
2022/01/11 03:23:03;;;;;;;3.20;1.77;;;;;;;7.15;85.82;98616.31;6161277;23;20605;-92
2022/01/11 03:25:35;;;;;;;3.93;1.60;;;;;;;7.02;85.46;98623.03;6187513;23;20181;-93
2022/01/11 03:28:02;;;;;;;2.80;1.33;;;;;;;6.75;85.88;98622.50;6187844;23;20174;-89
2022/01/11 03:30:31;;;;;;;4.87;1.73;;;;;;;6.93;85.04;98631.25;6187505;23;20150;-92
2022/01/11 03:32:57;;;;;;;2.40;1.20;;;;;;;6.86;85.52;98625.47;6187138;23;20145;-89
2022/01/11 03:35:26;;;;;;;2.90;1.37;;;;;;;7.02;84.35;98631.69;6186898;23;20154;-91
2022/01/11 03:37:54;;;;;;;1.80;1.13;;;;;;;6.93;84.38;98631.25;6187364;23;20230;-92
2022/01/11 03:40:22;;;;;;;2.07;0.83;;;;;;;6.36;85.68;98634.69;6187079;23;20157;-89
2022/01/11 03:42:54;;;;;;;6.03;1.77;;;;;;;6.12;88.10;98647.00;6186750;23;20146;-90
2022/01/11 03:45:29;;;;;;;1.57;1.00;;;;;;;6.24;87.89;98638.66;6162435;23;20170;-94
2022/01/11 03:47:59;;;;;;;2.83;1.33;;;;;;;6.10;87.74;98641.88;6162364;23;20668;-90
2022/01/11 03:53:32;;;;;;;1.73;0.97;;;;;;;6.40;87.18;98650.09;6171448;23;20150;-91
2022/01/11 03:56:21;;;;;;;3.13;1.43;;;;;;;6.61;86.55;98651.78;6160754;23;20159;-91
2022/01/11 03:58:46;;;;;;;1.33;0.83;;;;;;;6.74;84.89;98655.53;6187019;23;20217;-92
2022/01/11 04:01:57;;;;;;;;;;;;;;;;;;;;;
2022/01/11 04:04:43;;;;;;;2.20;1.20;;;;;;;6.25;87.37;98663.78;6186632;23;20239;-92
2022/01/11 04:07:34;;;;;;;3.33;1.57;;;;;;;6.50;86.12;98664.41;6187008;23;20191;-92
2022/01/11 04:10:33;;;;;;;1.57;1.07;;;;;;;6.52;85.77;98667.81;6187358;23;20135;-92
2022/01/11 04:13:04;;;;;;;5.57;1.50;;;;;;;6.60;85.64;98660.47;6210793;23;20166;-92
2022/01/11 04:15:42;;;;;;;3.43;1.40;;;;;;;6.74;84.25;98662.47;6160216;23;20237;-92
2022/01/11 04:18:07;;;;;;;3.47;1.77;;;;;;;6.57;83.52;98678.03;6186837;23;20166;-89
2022/01/11 04:20:33;;;;;;;2.77;1.97;;;;;;;6.31;84.34;98679.16;6186716;23;20153;-91
2022/01/11 04:23:09;;;;;;;5.17;1.80;;;;;;;6.09;85.33;98678.34;6160464;23;20482;-90
2022/01/11 04:25:41;;;;;;;3.47;1.70;;;;;;;6.46;84.33;98681.09;6160810;23;20146;-94
2022/01/11 04:31:11;;;;;;;4.10;1.53;;;;;;;5.87;85.58;98682.75;6175485;23;20258;-90
2022/01/11 04:33:36;;;;;;;3.27;1.90;;;;;;;5.83;86.19;98681.16;6185351;23;20158;-92
2022/01/11 04:36:21;;;;;;;4.50;2.13;;;;;;;6.02;85.59;98693.38;6186237;23;20570;-95
2022/01/11 04:38:47;;;;;;;2.87;1.77;;;;;;;5.99;85.47;98688.31;6185299;23;20138;-90
2022/01/11 04:41:13;;;;;;;4.10;1.93;;;;;;;6.19;84.68;98696.13;6185946;23;20641;-91
2022/01/11 04:43:58;;;;;;;4.53;1.77;;;;;;;6.16;84.32;98701.44;6186947;23;20509;-92
2022/01/11 04:46:56;;;;;;;1.60;1.17;;;;;;;5.85;84.36;98710.56;6160066;23;20165;-95
2022/01/11 04:49:22;;;;;;;4.30;2.03;;;;;;;5.92;84.72;98709.44;6145063;23;20305;-91
2022/01/11 04:51:58;;;;;;;8.27;2.20;;;;;;;6.00;84.35;98712.56;6185138;23;20177;-92
2022/01/11 04:54:52;;;;;;;6.10;1.77;;;;;;;5.93;84.72;98724.97;6186487;23;20213;-93
2022/01/11 04:57:18;;;;;;;2.33;1.30;;;;;;;5.74;84.00;98733.53;6129769;23;20155;-91
2022/01/11 04:59:43;;;;;;;7.67;1.47;;;;;;;5.21;87.59;98733.84;6203722;23;20172;-88
2022/01/11 05:02:09;;;;;;;3.03;1.40;;;;;;;5.55;86.97;98723.84;6186583;23;20156;-90
2022/01/11 05:04:37;;;;;;;4.37;1.63;;;;;;;5.49;86.07;98716.31;6186117;23;20150;-90
2022/01/11 05:07:03;;;;;;;5.43;1.43;;;;;;;5.70;86.09;98729.34;6210325;23;20601;-91
2022/01/11 05:09:29;;;;;;;2.17;1.30;;;;;;;5.61;85.06;98727.13;6185934;23;20208;-90
2022/01/11 05:11:54;;;;;;;5.60;1.83;;;;;;;5.51;87.09;98734.41;6186020;23;20190;-90
2022/01/11 05:14:22;;;;;;;2.73;1.53;;;;;;;5.54;86.32;98750.75;6184974;23;20217;-90
2022/01/11 05:16:57;;;;;;;2.37;1.73;;;;;;;6.01;84.29;98750.66;6186287;23;20157;-91
2022/01/11 05:19:22;;;;;;;3.77;1.40;;;;;;;6.00;84.16;98746.38;6184813;23;20146;-90
2022/01/11 05:21:50;;;;;;;4.73;2.10;;;;;;;5.88;84.44;98757.25;6186655;23;20154;-93
2022/01/11 05:24:18;;;;;;;3.00;1.43;;;;;;;5.85;84.32;98757.38;6159854;23;20621;-90
2022/01/11 05:26:47;;;;;;;6.80;1.90;;;;;;;5.83;83.65;98762.63;6186694;23;20154;-93
2022/01/11 05:29:14;;;;;;;1.90;1.60;;;;;;;5.84;83.72;98768.69;6185700;23;20178;-93
2022/01/11 05:31:45;;;;;;;1.93;0.97;;;;;;;5.91;82.37;98754.53;6185696;23;20658;-93
2022/01/11 05:34:11;;;;;;;5.43;1.87;;;;;;;5.61;82.93;98758.31;6159997;23;20170;-89
2022/01/11 05:36:36;;;;;;;3.23;2.47;;;;;;;5.73;83.70;98763.03;6186017;23;20600;-91
2022/01/11 05:39:14;;;;;;;3.47;1.33;;;;;;;5.86;82.62;98764.28;6186479;23;20142;-91
2022/01/11 05:42:11;;;;;;;2.63;1.90;;;;;;;5.73;82.76;98769.09;6186465;23;20224;-92
2022/01/11 05:45:11;;;;;;;2.17;1.60;;;;;;;5.64;83.45;98789.38;6160129;23;20150;-91
2022/01/11 05:47:42;;;;;;;3.90;2.37;;;;;;;5.25;84.01;98796.91;6152802;23;20200;-93
2022/01/11 05:50:10;;;;;;;2.43;1.83;;;;;;;4.94;85.46;98803.22;6160933;23;20157;-94
2022/01/11 05:52:49;;;;;;;4.43;2.00;;;;;;;5.45;83.75;98800.47;6185113;23;20155;-92
2022/01/11 05:55:15;;;;;;;3.67;1.80;;;;;;;5.40;83.56;98799.81;6185712;23;20153;-91
2022/01/11 05:57:41;;;;;;;3.47;1.87;;;;;;;5.74;82.21;98798.56;6186030;23;20215;-89
2022/01/11 06:00:21;;;;;;;;;;;;;;;;;;;;;
2022/01/11 06:02:54;;;;;;;2.53;1.50;;;;;;;5.41;82.62;98804.09;6186007;23;20224;-93
2022/01/11 06:05:20;;;;;;;3.27;1.60;;;;;;;5.88;82.11;98802.31;6185210;23;20157;-89
2022/01/11 06:07:45;;;;;;;9.20;3.83;;;;;;;5.88;80.73;98811.88;6185521;23;20636;-90
2022/01/11 06:10:11;;;;;;;3.50;1.97;;;;;;;5.82;80.11;98812.06;6185925;23;20151;-89
2022/01/11 06:12:57;;;;;;;5.47;1.80;;;;;;;5.69;80.75;98822.09;6185937;23;20150;-92
2022/01/11 06:15:26;;;;;;;1.70;0.80;;;;;;;5.55;82.22;98822.63;6185531;23;20181;-90
2022/01/11 06:17:58;;;;;;;1.33;0.70;;;;;;;5.87;80.06;98834.44;6185495;23;20170;-92
2022/01/11 06:20:23;;;;;;;5.20;1.90;;;;;;;5.80;80.60;98832.94;6186071;23;20157;-90
2022/01/11 06:22:49;;;;;;;3.17;1.00;;;;;;;5.52;81.07;98840.09;6185519;23;20528;-91
2022/01/11 06:25:24;;;;;;;3.17;1.10;;;;;;;5.58;80.47;98838.09;6160049;23;20182;-93
2022/01/11 06:27:50;;;;;;;4.20;1.70;;;;;;;5.40;81.46;98850.91;6161246;23;20189;-90
2022/01/11 06:30:17;;;;;;;2.60;1.07;;;;;;;5.14;82.32;98851.88;6185807;23;20229;-92
2022/01/11 06:32:43;;;;;;;2.43;0.93;;;;;;;5.22;83.08;98849.00;6185564;23;20213;-91
2022/01/11 06:35:10;;;;;;;4.23;1.77;;;;;;;5.41;81.73;98853.50;6186987;23;20150;-94
2022/01/11 06:37:36;;;;;;;2.20;1.57;;;;;;;5.55;81.64;98845.19;6187652;23;20146;-91
2022/01/11 06:40:03;;;;;;;2.40;1.17;;;;;;;5.51;81.54;98857.44;6187794;23;20151;-94
2022/01/11 06:42:31;;;;;;;5.30;1.60;;;;;;;5.65;80.67;98858.69;6161605;23;20158;-91
2022/01/11 06:45:06;;;;;;;4.47;1.73;;;;;;;5.18;81.88;98871.66;6187494;23;20225;-94
2022/01/11 06:47:32;;;;;;;2.23;1.57;;;;;;;5.18;82.86;98878.59;6161715;23;20178;-94
2022/01/11 06:49:57;;;;;;;6.10;2.70;;;;;;;5.24;81.82;98881.81;6187493;23;20182;-92
2022/01/11 06:52:23;;;;;;;2.07;1.03;;;;;;;5.33;81.57;98891.03;6161542;23;20153;-93
2022/01/11 06:55:09;;;;;;;2.87;1.43;;;;;;;5.30;81.69;98892.00;6186480;23;20609;-93
2022/01/11 06:57:35;;;;;;;3.40;1.73;;;;;;;5.58;80.49;98887.50;6187757;23;20135;-89
2022/01/11 07:00:06;;;;;;;6.43;1.77;;;;;;;5.93;79.89;98880.16;6186129;23;20226;-92
2022/01/11 07:02:37;;;;;;;2.10;1.17;;;;;;;5.91;79.10;98875.03;6185916;23;20150;-92
2022/01/11 07:05:05;;;;;;;2.30;1.50;;;;;;;5.86;79.43;98887.38;6187135;23;20570;-91
2022/01/11 07:07:31;;;;;;;2.97;1.40;;;;;;;5.84;79.64;98885.72;6186095;23;20182;-90
2022/01/11 07:10:03;;;;;;;3.07;1.17;;;;;;;5.51;80.32;98891.22;6186689;23;20579;-94
2022/01/11 07:12:28;;;;;;;1.17;0.80;;;;;;;5.31;81.22;98900.66;6186525;23;20153;-91
2022/01/11 07:14:54;;;;;;;2.37;1.40;;;;;;;5.08;82.66;98903.19;6187398;23;20160;-94
2022/01/11 07:20:09;;;;;;;4.43;1.30;;;;;;;5.48;81.28;98908.69;6176861;23;20587;-89
2022/01/11 07:22:37;;;;;;;2.90;1.53;;;;;;;5.69;81.03;98917.44;6187001;23;20153;-93
2022/01/11 07:25:30;;;;;;;3.73;1.70;;;;;;;5.09;83.30;98925.66;6186700;23;20159;-95
2022/01/11 07:27:59;;;;;;;6.33;1.10;;;;;;;4.94;83.53;98922.69;6187582;23;20290;-94
2022/01/11 07:30:28;;;;;;;0.43;0.43;;;;;;;4.43;86.04;98919.16;6187696;23;20154;-92
2022/01/11 07:32:54;;;;;;;0.93;0.63;;;;;;;4.88;84.97;98927.22;6161126;23;20605;-91
2022/01/11 07:36:14;;;;;;;1.53;1.10;;;;;;;4.69;85.26;98932.16;6186542;23;20205;-94
2022/01/11 07:38:44;;;;;;;1.67;1.13;;;;;;;4.92;85.07;98941.81;6188225;23;20583;-93
2022/01/11 07:41:12;;;;;;;2.97;0.77;;;;;;;5.14;83.87;98944.53;6186078;23;20200;-92
2022/01/11 07:50:24;;;;;;;;;;;;;;;;;;;;;
2022/01/11 07:52:52;;;;;;;2.33;0.90;;;;;;;5.32;82.26;98968.13;6184305;23;20235;-91
2022/01/11 07:55:23;;;;;;;4.30;1.53;;;;;;;5.51;81.42;98966.63;6186535;23;20158;-92
2022/01/11 07:57:51;;;;;;;2.20;1.53;;;;;;;5.57;80.59;98966.41;6162052;23;20260;-91
2022/01/11 08:00:19;;;;;;;2.50;0.67;;;;;;;5.58;79.91;98965.47;6187167;23;20274;-91
2022/01/11 08:02:44;;;;;;;2.40;1.13;;;;;;;5.85;79.62;98955.03;6160891;23;20153;-92
2022/01/11 08:05:36;;;;;;;2.60;1.40;;;;;;;5.65;79.72;98968.72;6161234;23;20161;-95
2022/01/11 08:08:02;;;;;;;3.73;1.33;;;;;;;5.57;80.37;98975.94;6186355;23;20269;-91
2022/01/11 08:11:13;;;;;;;;;;;;;;;;;;;;;
2022/01/11 08:13:59;;;;;;;5.50;1.40;;;;;;;5.85;79.63;98970.63;6186986;23;20228;-92
2022/01/11 08:17:08;;;;;;;1.80;0.93;;;;;;;5.70;79.33;98976.38;6160950;23;20227;-93
2022/01/11 08:19:34;;;;;;;2.27;1.57;;;;;;;5.61;79.57;98971.50;6185853;23;20168;-92
2022/01/11 08:22:05;;;;;;;1.33;0.73;;;;;;;5.57;80.04;98974.22;6185628;23;20160;-91
2022/01/11 08:24:31;;;;;;;3.43;0.90;;;;;;;5.85;79.31;98973.25;6186691;23;20573;-91
2022/01/11 08:26:59;;;;;;;2.73;1.70;;;;;;;5.72;79.31;98977.16;6186517;23;20158;-91
2022/01/11 08:29:30;;;;;;;2.67;2.00;;;;;;;5.81;79.28;98985.50;6160866;23;20154;-93
2022/01/11 08:31:56;;;;;;;3.57;0.80;;;;;;;5.93;79.02;98990.28;6186656;23;20173;-91
2022/01/11 08:34:22;;;;;;;2.97;1.67;;;;;;;5.89;79.62;99003.44;6185679;23;20177;-93
2022/01/11 08:37:00;;;;;;;;;;;;;;;;;;;;;
2022/01/11 08:46:54;;;;;;;4.57;1.97;;;;;;;6.47;77.28;99018.59;5987843;23;20168;-92
2022/01/11 08:50:16;;;;;;;;;;;;;;;;;;;;;
2022/01/11 10:42:32;;;;;;;;;;;;;;;;;;;;;
2022/01/11 10:45:20;;;;;;;1.53;1.17;;;;;;;4.99;80.87;99062.78;5950372;24;20237;-89
2022/01/11 10:48:07;;;;;;;2.13;0.83;;;;;;;4.57;81.33;99054.56;5978673;24;20551;-89
2022/01/11 10:50:37;;;;;;;4.07;1.87;;;;;;;4.60;82.73;99056.22;5980828;24;20246;-89
2022/01/11 10:53:12;;;;;;;4.97;2.27;;;;;;;4.52;82.22;99053.00;6176854;23;20161;-89
2022/01/11 10:55:38;;;;;;;6.60;1.40;;;;;;;4.28;83.81;99054.56;6188806;23;20140;-89
2022/01/11 10:58:10;;;;;;;2.90;1.80;;;;;;;4.27;83.12;99053.69;6189349;23;20463;-88
2022/01/11 11:00:40;;;;;;;2.87;1.50;;;;;;;4.47;83.38;99060.06;6215110;23;20148;-88
2022/01/11 11:03:27;;;;;;;3.93;1.40;;;;;;;4.53;83.58;99050.38;6214291;23;20138;-88
2022/01/11 11:06:07;;;;;;;2.40;1.67;;;;;;;4.55;82.82;99051.16;6213465;23;20157;-89
2022/01/11 11:08:38;;;;;;;2.33;1.47;;;;;;;4.64;83.17;99053.47;6215032;23;20166;-87
2022/01/11 11:11:12;;;;;;;2.50;1.47;;;;;;;4.42;83.44;99051.56;6215561;23;20138;-86
2022/01/11 11:13:40;;;;;;;2.67;1.80;;;;;;;4.61;83.14;99039.75;6215796;23;20156;-85
2022/01/11 11:16:22;;;;;;;4.30;1.90;;;;;;;4.46;82.70;99048.81;6215068;23;20147;-86
2022/01/11 11:18:59;;;;;;;5.27;1.90;;;;;;;4.54;83.78;99046.00;6188980;23;20555;-86
2022/01/11 11:21:33;;;;;;;4.93;2.47;;;;;;;4.51;83.24;99051.31;6215741;23;20131;-86
2022/01/11 11:24:00;;;;;;;3.70;1.93;;;;;;;4.52;83.36;99047.78;6216923;23;20554;-88
2022/01/11 11:26:29;;;;;;;3.00;1.97;;;;;;;4.54;83.54;99048.59;6216874;23;20178;-89
2022/01/11 11:28:55;;;;;;;1.47;1.37;;;;;;;4.53;82.84;99049.50;6217432;23;20185;-91
2022/01/11 11:31:21;;;;;;;2.73;1.97;;;;;;;4.37;83.46;99050.84;6217268;23;20160;-90
2022/01/11 11:33:47;;;;;;;5.63;1.57;;;;;;;4.32;83.91;99062.19;6190767;23;20169;-90
2022/01/11 11:36:14;;;;;;;10.70;2.27;;;;;;;4.50;83.78;99059.97;6190744;23;20227;-92
2022/01/11 11:38:59;;;;;;;4.17;2.27;;;;;;;4.72;82.92;99064.47;6190769;23;20146;-90
2022/01/11 11:41:26;;;;;;;5.47;2.13;;;;;;;4.69;81.70;99063.75;6190571;23;20188;-90
2022/01/11 11:44:05;;;;;;;2.33;1.80;;;;;;;4.31;83.01;99062.25;6217066;23;20157;-91
2022/01/11 11:46:48;;;;;;;6.40;2.00;;;;;;;4.42;83.40;99061.94;6216671;23;20150;-89
2022/01/11 11:49:15;;;;;;;2.77;1.50;;;;;;;4.25;83.58;99068.47;6190293;23;20250;-89
2022/01/11 11:51:43;;;;;;;2.83;1.80;;;;;;;4.31;83.32;99070.88;6190237;23;20172;-89
2022/01/11 11:54:13;;;;;;;4.00;2.43;;;;;;;4.41;82.80;99057.63;6216566;23;20160;-89
2022/01/11 11:56:39;;;;;;;2.43;1.53;;;;;;;4.40;82.73;99063.75;6190577;23;20569;-89
2022/01/11 11:59:09;;;;;;;6.87;2.17;;;;;;;4.31;83.25;99063.09;6216910;23;20177;-88
2022/01/11 12:01:42;;;;;;;4.00;2.27;;;;;;;4.35;83.02;99067.31;6216492;23;20225;-87
2022/01/11 12:04:19;;;;;;;4.10;2.30;;;;;;;4.16;84.21;99075.66;6216477;23;20154;-87
2022/01/11 12:06:46;;;;;;;6.63;3.17;;;;;;;4.16;84.13;99071.31;6216757;23;20225;-86
2022/01/11 12:09:17;;;;;;;4.60;2.83;;;;;;;4.16;84.23;99073.94;6216391;23;20180;-84
2022/01/11 12:11:46;;;;;;;6.17;3.40;;;;;;;4.04;85.05;99076.84;6216813;23;20134;-84
2022/01/11 12:14:30;;;;;;;5.90;2.53;;;;;;;4.37;84.73;99071.59;6216723;23;20177;-84
2022/01/11 12:17:18;;;;;;;5.20;2.60;;;;;;;4.39;83.91;99073.25;6216376;23;20187;-85
2022/01/11 12:19:48;;;;;;;2.83;1.83;;;;;;;4.46;83.80;99068.72;6196916;23;20153;-85
2022/01/11 12:22:17;;;;;;;5.10;2.37;;;;;;;4.56;83.17;99080.56;6216329;23;20582;-85
2022/01/11 12:24:45;;;;;;;6.07;2.23;;;;;;;4.60;82.54;99082.16;6216296;23;20252;-85
2022/01/11 12:27:13;;;;;;;5.33;1.97;;;;;;;4.50;83.11;99080.75;6216134;23;20157;-85
2022/01/11 12:30:09;;;;;;;7.03;3.50;;;;;;;4.62;82.59;99093.34;6190026;23;20158;-85
2022/01/11 12:32:56;;;;;;;5.10;2.50;;;;;;;4.60;82.55;99095.13;6216624;23;20475;-85
2022/01/11 12:35:22;;;;;;;5.40;2.27;;;;;;;4.67;82.32;99094.06;6215901;23;20193;-86
2022/01/11 12:37:48;;;;;;;3.60;2.03;;;;;;;4.64;82.01;99099.38;6216566;23;20149;-85
2022/01/11 12:40:29;;;;;;;5.27;2.23;;;;;;;4.82;82.24;99107.44;6216209;23;20152;-85
2022/01/11 12:43:04;;;;;;;2.70;1.67;;;;;;;4.90;81.30;99107.22;6216502;23;20219;-87
2022/01/11 12:46:00;;;;;;;5.90;2.03;;;;;;;4.74;81.22;99104.22;6216160;23;20251;-86
2022/01/11 12:48:48;;;;;;;4.67;2.63;;;;;;;4.70;81.35;99104.34;6216399;23;20236;-87
2022/01/11 12:51:52;;;;;;;6.87;2.97;;;;;;;4.37;82.59;99106.19;6216051;23;20146;-86
2022/01/11 12:54:19;;;;;;;5.27;2.87;;;;;;;4.32;83.45;99106.31;6189894;23;20154;-87
2022/01/11 12:56:47;;;;;;;5.13;2.90;;;;;;;4.34;83.32;99114.06;6216743;23;20150;-86
2022/01/11 12:59:13;;;;;;;7.03;3.67;;;;;;;4.32;83.59;99114.09;6216285;23;20146;-87
2022/01/11 13:01:39;;;;;;;5.57;2.73;;;;;;;4.34;83.35;99122.69;6215936;23;20480;-87
2022/01/11 13:04:05;;;;;;;5.23;2.90;;;;;;;4.29;83.52;99128.91;6215993;23;20229;-89
2022/01/11 13:06:32;;;;;;;6.93;3.50;;;;;;;4.29;83.19;99126.31;6215952;23;20169;-87
2022/01/11 13:09:00;;;;;;;4.50;2.73;;;;;;;4.08;84.04;99122.56;6189541;23;20209;-88
2022/01/11 13:11:26;;;;;;;14.63;3.50;;;;;;;4.29;83.47;99124.56;6215859;23;20152;-88
2022/01/11 13:14:31;;;;;;;5.53;2.30;;;;;;;4.11;83.75;99129.41;6189782;23;20154;-91
2022/01/11 13:17:01;;;;;;;7.50;3.73;;;;;;;4.02;84.16;99140.00;6216205;23;20134;-88
2022/01/11 13:19:32;;;;;;;6.80;2.70;;;;;;;4.12;84.22;99137.13;6189587;23;20169;-87
2022/01/11 13:22:07;;;;;;;5.93;3.70;;;;;;;4.19;84.16;99143.03;6190556;23;20232;-87
2022/01/11 13:24:41;;;;;;;6.27;3.00;;;;;;;4.01;83.48;99144.34;6189979;23;20153;-88
2022/01/11 13:27:13;;;;;;;4.03;2.20;;;;;;;3.93;84.24;99148.88;6216335;23;20252;-89
2022/01/11 13:29:41;;;;;;;6.20;2.23;;;;;;;3.83;84.56;99150.00;6189701;23;20146;-92
2022/01/11 13:32:08;;;;;;;7.17;2.00;;;;;;;3.58;85.17;99165.31;6216025;23;20177;-87
2022/01/11 13:34:35;;;;;;;4.20;2.10;;;;;;;3.73;85.44;99171.88;6189293;23;20197;-88
2022/01/11 13:37:00;;;;;;;5.97;3.30;;;;;;;3.74;84.82;99181.34;6216373;23;20185;-90
2022/01/11 13:39:35;;;;;;;5.63;2.50;;;;;;;3.80;85.09;99170.81;6217118;23;20154;-91
2022/01/11 13:42:04;;;;;;;7.77;2.93;;;;;;;4.04;84.26;99169.34;6216516;23;20544;-90
2022/01/11 13:44:32;;;;;;;4.47;2.47;;;;;;;4.26;83.72;99171.34;6189338;23;20173;-91
2022/01/11 13:46:59;;;;;;;5.07;2.23;;;;;;;4.29;83.38;99173.88;6190299;23;20504;-92
2022/01/11 13:49:28;;;;;;;5.73;2.90;;;;;;;4.11;82.67;99166.56;6215636;23;20201;-90
2022/01/11 13:51:57;;;;;;;6.20;2.77;;;;;;;3.91;83.35;99168.81;6216084;23;20146;-88
2022/01/11 13:54:30;;;;;;;4.67;2.03;;;;;;;3.88;83.69;99179.25;6189407;23;20153;-89
2022/01/11 13:56:55;;;;;;;5.03;2.77;;;;;;;3.82;84.26;99179.44;6190220;23;20521;-90
2022/01/11 13:59:26;;;;;;;3.87;2.50;;;;;;;3.80;84.19;99186.38;6190154;23;20577;-90
2022/01/11 14:02:17;;;;;;;6.30;4.53;;;;;;;4.01;83.85;99179.81;6215952;23;20134;-86
2022/01/11 14:04:52;;;;;;;5.87;2.90;;;;;;;4.09;82.89;99183.91;6215906;23;20134;-90
2022/01/11 14:07:20;;;;;;;3.23;2.07;;;;;;;4.08;82.76;99186.53;6190610;23;20149;-90
2022/01/11 14:09:50;;;;;;;13.27;2.87;;;;;;;4.13;82.54;99188.13;6215463;23;20160;-90
2022/01/11 14:12:25;;;;;;;3.93;1.67;;;;;;;4.11;83.15;99197.69;6215778;23;20163;-90
2022/01/11 14:15:01;;;;;;;3.77;1.83;;;;;;;4.00;83.63;99194.53;6215805;23;20134;-90
2022/01/11 14:17:31;;;;;;;3.60;1.87;;;;;;;4.15;82.86;99193.25;6215442;23;20625;-87
2022/01/11 14:20:05;;;;;;;3.27;1.67;;;;;;;4.19;82.55;99194.91;6215415;23;20164;-86
2022/01/11 14:22:36;;;;;;;6.13;2.50;;;;;;;4.08;82.41;99192.59;6215813;23;20200;-88
2022/01/11 14:25:01;;;;;;;6.80;2.70;;;;;;;4.09;82.70;99201.19;6216418;23;20158;-88
2022/01/11 14:27:29;;;;;;;5.33;2.53;;;;;;;4.19;82.60;99197.50;6215318;23;20182;-89
2022/01/11 14:30:01;;;;;;;7.53;2.73;;;;;;;4.27;82.51;99195.56;6189224;23;20177;-89
2022/01/11 14:32:28;;;;;;;5.93;2.03;;;;;;;4.41;82.07;99201.22;6190229;23;20146;-88
2022/01/11 14:35:00;;;;;;;2.80;1.93;;;;;;;4.49;81.35;99195.81;6189056;23;20586;-88
2022/01/11 14:37:29;;;;;;;4.00;2.17;;;;;;;4.56;81.25;99202.56;6189255;23;20200;-87
2022/01/11 14:39:54;;;;;;;6.10;2.67;;;;;;;4.65;80.90;99199.69;6189032;23;20150;-88
2022/01/11 14:42:29;;;;;;;4.57;2.77;;;;;;;4.57;79.88;99199.06;6215362;23;20161;-88
2022/01/11 14:45:36;;;;;;;9.07;4.03;;;;;;;4.40;80.28;99204.72;6189131;23;20484;-87
2022/01/11 14:48:02;;;;;;;4.83;1.90;;;;;;;4.40;80.74;99209.06;6215224;23;20288;-88